Time;durP1;ratioP1;P1;durP2;ratioP2;P2;SDS_P1;SDS_P2;PMS_P1;PMS_P2;Temp;Humidity;BMP_temperature;BMP_pressure;BME280_temperature;BME280_humidity;BME280_pressure;Samples;Min_cycle;Max_cycle;Signal;HPM_P1;HPM_P2
2024/04/06 00:00:45;;;;;;;7.97;7.87;;;;;;;;;;5093236;28;20982;-69
2024/04/06 00:03:12;;;;;;;8.10;8.00;;;;;;;;;;5072078;28;20469;-69
2024/04/06 00:05:40;;;;;;;7.90;7.80;;;;;;;;;;5071545;28;20467;-70
2024/04/06 00:08:10;;;;;;;7.90;7.80;;;;;;;;;;5072850;28;21065;-69
2024/04/06 00:10:36;;;;;;;8.13;8.03;;;;;;;;;;5071036;28;20470;-71
2024/04/06 00:13:03;;;;;;;7.50;7.40;;;;;;;;;;5071453;28;20497;-69
2024/04/06 00:15:29;;;;;;;8.00;7.90;;;;;;;;;;5071148;28;20495;-72
2024/04/06 00:17:57;;;;;;;8.10;8.00;;;;;;;;;;5071526;28;20562;-68
2024/04/06 00:20:23;;;;;;;8.10;8.00;;;;;;;;;;5073633;28;21065;-70
2024/04/06 00:22:51;;;;;;;8.10;8.00;;;;;;;;;;5068247;28;20492;-71
2024/04/06 00:25:18;;;;;;;7.63;7.53;;;;;;;;;;5070162;28;20476;-71
2024/04/06 00:27:45;;;;;;;7.63;7.53;;;;;;;;;;5068900;28;20465;-69
2024/04/06 00:30:11;;;;;;;7.90;7.80;;;;;;;;;;5070009;28;20503;-70
2024/04/06 00:32:38;;;;;;;8.17;8.07;;;;;;;;;;5070014;28;21245;-69
2024/04/06 00:35:05;;;;;;;7.77;7.67;;;;;;;;;;5070450;28;21873;-70
2024/04/06 00:37:32;;;;;;;8.20;8.10;;;;;;;;;;5069550;28;20464;-70
2024/04/06 00:40:00;;;;;;;8.00;7.90;;;;;;;;;;5069942;28;21573;-69
2024/04/06 00:42:27;;;;;;;7.70;7.60;;;;;;;;;;5069049;28;20582;-74
2024/04/06 00:44:53;;;;;;;8.10;8.00;;;;;;;;;;5068562;28;20477;-70
2024/04/06 00:47:22;;;;;;;7.83;7.73;;;;;;;;;;5070461;28;21033;-69
2024/04/06 00:49:48;;;;;;;7.97;7.87;;;;;;;;;;5068982;28;20496;-69
2024/04/06 00:52:15;;;;;;;7.90;7.80;;;;;;;;;;5070875;28;20905;-70
2024/04/06 00:54:41;;;;;;;7.60;7.50;;;;;;;;;;5068583;28;20552;-68
2024/04/06 00:57:10;;;;;;;7.77;7.67;;;;;;;;;;5068714;28;20993;-69
2024/04/06 00:59:36;;;;;;;7.70;7.60;;;;;;;;;;5070392;28;21186;-71
2024/04/06 01:02:04;;;;;;;7.80;7.70;;;;;;;;;;5100130;28;20991;-69
2024/04/06 01:04:30;;;;;;;8.00;7.90;;;;;;;;;;5109013;28;20457;-70
2024/04/06 01:06:58;;;;;;;8.23;8.13;;;;;;;;;;5100916;28;20541;-71
2024/04/06 01:09:24;;;;;;;7.70;7.60;;;;;;;;;;5101041;28;20806;-72
2024/04/06 01:11:52;;;;;;;7.80;7.70;;;;;;;;;;5100405;28;20915;-69
2024/04/06 01:14:19;;;;;;;8.47;8.37;;;;;;;;;;5100862;28;20485;-71
2024/04/06 01:16:47;;;;;;;8.00;7.90;;;;;;;;;;5109142;28;20465;-71
2024/04/06 01:19:16;;;;;;;8.10;8.00;;;;;;;;;;5096633;28;20454;-69
2024/04/06 01:21:43;;;;;;;7.80;7.70;;;;;;;;;;5100561;28;20494;-71
2024/04/06 01:24:24;;;;;;;7.70;7.60;;;;;;;;;;5097007;28;20461;-68
2024/04/06 01:26:51;;;;;;;7.90;7.80;;;;;;;;;;5097768;28;20866;-70
2024/04/06 01:29:17;;;;;;;8.00;7.90;;;;;;;;;;5102974;28;20458;-68
2024/04/06 01:31:45;;;;;;;7.90;7.80;;;;;;;;;;5101926;28;20809;-68
2024/04/06 01:34:11;;;;;;;7.93;7.83;;;;;;;;;;5103718;28;20935;-71
2024/04/06 01:36:40;;;;;;;8.20;8.10;;;;;;;;;;5099902;28;20894;-69
2024/04/06 01:39:07;;;;;;;7.50;7.40;;;;;;;;;;5100546;28;20453;-69
2024/04/06 01:41:36;;;;;;;7.93;7.83;;;;;;;;;;5103105;28;20938;-71
2024/04/06 01:44:02;;;;;;;7.80;7.70;;;;;;;;;;5105377;28;20484;-69
2024/04/06 01:46:29;;;;;;;7.73;7.63;;;;;;;;;;5102937;28;20842;-69
2024/04/06 01:48:55;;;;;;;7.30;7.20;;;;;;;;;;5094698;28;21179;-69
2024/04/06 01:51:23;;;;;;;7.27;7.17;;;;;;;;;;5099370;28;20832;-71
2024/04/06 01:53:49;;;;;;;7.33;7.23;;;;;;;;;;5107512;28;20548;-69
2024/04/06 01:56:16;;;;;;;7.47;7.37;;;;;;;;;;5099127;28;20725;-68
2024/04/06 01:58:44;;;;;;;7.77;7.67;;;;;;;;;;5108501;28;20457;-69
2024/04/06 02:01:12;;;;;;;8.00;7.90;;;;;;;;;;5103520;28;20557;-69
2024/04/06 02:03:38;;;;;;;7.97;7.87;;;;;;;;;;5108441;28;20488;-69
2024/04/06 02:06:08;;;;;;;8.23;8.13;;;;;;;;;;5111234;28;20545;-69
2024/04/06 02:08:34;;;;;;;8.00;7.90;;;;;;;;;;5103400;28;20522;-69
2024/04/06 02:11:02;;;;;;;7.30;7.20;;;;;;;;;;5106687;28;20463;-69
2024/04/06 02:13:28;;;;;;;7.57;7.47;;;;;;;;;;5106094;28;20494;-69
2024/04/06 02:15:58;;;;;;;6.50;6.40;;;;;;;;;;5109442;28;20448;-70
2024/04/06 02:18:24;;;;;;;6.50;6.40;;;;;;;;;;5108342;28;20492;-69
2024/04/06 02:20:51;;;;;;;6.63;6.53;;;;;;;;;;5108274;28;20476;-71
2024/04/06 02:23:17;;;;;;;5.40;5.30;;;;;;;;;;5104809;28;20566;-69
2024/04/06 02:25:44;;;;;;;5.57;5.47;;;;;;;;;;5108583;28;20457;-72
2024/04/06 02:28:10;;;;;;;5.70;5.60;;;;;;;;;;5106713;28;20976;-69
2024/04/06 02:30:38;;;;;;;4.80;4.80;;;;;;;;;;5111847;28;20491;-71
2024/04/06 02:33:06;;;;;;;5.30;5.20;;;;;;;;;;5112273;28;20798;-69
2024/04/06 02:35:33;;;;;;;4.60;4.60;;;;;;;;;;5105595;28;20573;-69
2024/04/06 02:37:59;;;;;;;4.73;4.73;;;;;;;;;;5108252;28;20536;-69
2024/04/06 02:40:27;;;;;;;3.90;3.90;;;;;;;;;;5112329;28;20868;-69
2024/04/06 02:42:53;;;;;;;4.43;4.43;;;;;;;;;;5105112;28;20994;-69
2024/04/06 02:45:20;;;;;;;4.00;4.00;;;;;;;;;;5109842;27;20537;-69
2024/04/06 02:47:46;;;;;;;3.83;3.83;;;;;;;;;;5115741;27;20472;-69
2024/04/06 02:50:15;;;;;;;4.27;4.27;;;;;;;;;;5111609;28;20553;-69
2024/04/06 02:52:41;;;;;;;3.60;3.60;;;;;;;;;;5105652;28;20460;-70
2024/04/06 02:55:09;;;;;;;3.50;3.50;;;;;;;;;;5111761;28;20459;-69
2024/04/06 02:57:36;;;;;;;3.53;3.53;;;;;;;;;;5108877;28;20878;-69
2024/04/06 03:00:04;;;;;;;3.63;3.63;;;;;;;;;;5107621;28;20470;-70
2024/04/06 03:02:30;;;;;;;3.33;3.33;;;;;;;;;;5105537;28;20578;-69
2024/04/06 03:04:58;;;;;;;3.50;3.50;;;;;;;;;;5111696;28;20462;-69
2024/04/06 03:07:26;;;;;;;3.37;3.37;;;;;;;;;;5111275;28;20460;-70
2024/04/06 03:09:59;;;;;;;3.60;3.60;;;;;;;;;;5106042;28;20555;-71
2024/04/06 03:12:25;;;;;;;3.20;3.20;;;;;;;;;;5103690;28;20490;-69
2024/04/06 03:14:52;;;;;;;3.37;3.37;;;;;;;;;;5091131;28;20464;-70
2024/04/06 03:17:19;;;;;;;3.70;3.70;;;;;;;;;;5083359;28;20469;-69
2024/04/06 03:19:46;;;;;;;3.30;3.30;;;;;;;;;;5086680;28;20492;-69
2024/04/06 03:22:12;;;;;;;3.60;3.60;;;;;;;;;;5075317;28;21015;-71
2024/04/06 03:24:41;;;;;;;3.73;3.73;;;;;;;;;;5084462;28;20830;-69
2024/04/06 03:27:07;;;;;;;3.47;3.47;;;;;;;;;;5084970;28;20480;-72
2024/04/06 03:29:35;;;;;;;3.83;3.83;;;;;;;;;;5088789;28;20468;-69
2024/04/06 03:32:02;;;;;;;4.40;4.40;;;;;;;;;;5080649;28;20475;-70
2024/04/06 03:34:29;;;;;;;3.80;3.80;;;;;;;;;;5090992;28;20557;-69
2024/04/06 03:36:56;;;;;;;4.10;4.10;;;;;;;;;;5087036;28;20826;-71
2024/04/06 03:39:23;;;;;;;4.10;4.10;;;;;;;;;;5080654;28;20463;-69
2024/04/06 03:41:51;;;;;;;4.10;4.10;;;;;;;;;;5090471;28;20459;-69
2024/04/06 03:44:17;;;;;;;4.60;4.60;;;;;;;;;;5090471;28;20495;-71
2024/04/06 03:46:45;;;;;;;4.40;4.40;;;;;;;;;;5087823;28;20547;-69
2024/04/06 03:49:11;;;;;;;4.00;4.00;;;;;;;;;;5083961;28;20453;-69
2024/04/06 03:51:38;;;;;;;4.60;4.60;;;;;;;;;;5084304;28;20588;-69
2024/04/06 03:54:04;;;;;;;4.50;4.50;;;;;;;;;;5089904;28;20477;-71
2024/04/06 03:56:32;;;;;;;4.10;4.10;;;;;;;;;;5085192;28;20466;-69
2024/04/06 03:58:59;;;;;;;3.80;3.80;;;;;;;;;;5091646;28;20457;-69
2024/04/06 04:01:26;;;;;;;3.60;3.60;;;;;;;;;;5084388;28;20471;-69
2024/04/06 04:03:52;;;;;;;3.67;3.67;;;;;;;;;;5075196;28;20516;-70
2024/04/06 04:06:20;;;;;;;3.80;3.80;;;;;;;;;;5080457;28;20474;-69
2024/04/06 04:08:46;;;;;;;3.87;3.87;;;;;;;;;;5079029;28;20465;-69
2024/04/06 04:11:16;;;;;;;4.50;4.50;;;;;;;;;;5083744;28;20906;-70
2024/04/06 04:13:42;;;;;;;5.00;5.00;;;;;;;;;;5088935;28;20481;-70
2024/04/06 04:16:11;;;;;;;4.43;4.43;;;;;;;;;;5085434;28;20545;-70
2024/04/06 04:18:37;;;;;;;4.37;4.37;;;;;;;;;;5084731;28;20503;-70
2024/04/06 04:21:04;;;;;;;4.50;4.50;;;;;;;;;;5080469;28;20473;-70
2024/04/06 04:23:30;;;;;;;4.50;4.50;;;;;;;;;;5085372;28;20497;-68
2024/04/06 04:25:58;;;;;;;4.90;4.90;;;;;;;;;;5077436;28;20465;-68
2024/04/06 04:28:24;;;;;;;4.80;4.80;;;;;;;;;;5083044;28;20547;-68
2024/04/06 04:30:51;;;;;;;4.40;4.40;;;;;;;;;;5082178;28;20484;-69
2024/04/06 04:33:19;;;;;;;4.40;4.40;;;;;;;;;;5100195;28;20455;-69
2024/04/06 04:35:46;;;;;;;4.70;4.70;;;;;;;;;;5082409;28;20780;-69
2024/04/06 04:38:13;;;;;;;4.63;4.63;;;;;;;;;;5078257;28;20472;-70
2024/04/06 04:40:40;;;;;;;4.57;4.57;;;;;;;;;;5085981;28;20875;-69
2024/04/06 04:43:06;;;;;;;4.50;4.50;;;;;;;;;;5086105;28;20484;-70
2024/04/06 04:45:33;;;;;;;4.80;4.80;;;;;;;;;;5087680;28;20468;-70
2024/04/06 04:48:00;;;;;;;4.90;4.90;;;;;;;;;;5081432;28;20467;-69
2024/04/06 04:50:28;;;;;;;5.17;5.10;;;;;;;;;;5083216;28;20458;-70
2024/04/06 04:52:55;;;;;;;4.60;4.60;;;;;;;;;;5087774;28;20595;-69
2024/04/06 04:55:22;;;;;;;5.00;5.00;;;;;;;;;;5081263;28;20515;-68
2024/04/06 04:57:48;;;;;;;5.27;5.17;;;;;;;;;;5081882;28;20887;-69
2024/04/06 05:00:15;;;;;;;4.77;4.77;;;;;;;;;;5078542;28;20786;-68
2024/04/06 05:02:42;;;;;;;5.57;5.47;;;;;;;;;;5078936;28;20500;-68
2024/04/06 05:05:09;;;;;;;5.63;5.53;;;;;;;;;;5084445;28;20468;-68
2024/04/06 05:07:36;;;;;;;6.00;5.90;;;;;;;;;;5081019;28;20471;-71
2024/04/06 05:10:05;;;;;;;5.40;5.30;;;;;;;;;;5085924;28;20486;-68
2024/04/06 05:12:31;;;;;;;5.47;5.37;;;;;;;;;;5083762;28;20492;-69
2024/04/06 05:14:58;;;;;;;6.20;6.10;;;;;;;;;;5104292;28;20467;-68
2024/04/06 05:17:25;;;;;;;5.47;5.37;;;;;;;;;;5101330;28;20543;-70
2024/04/06 05:19:52;;;;;;;6.00;5.90;;;;;;;;;;5106582;28;20461;-71
2024/04/06 05:22:18;;;;;;;6.17;6.07;;;;;;;;;;5104292;28;20462;-68
2024/04/06 05:24:47;;;;;;;6.10;6.00;;;;;;;;;;5096083;28;20838;-69
2024/04/06 05:27:16;;;;;;;6.40;6.30;;;;;;;;;;5102488;28;20878;-68
2024/04/06 05:29:43;;;;;;;6.37;6.27;;;;;;;;;;5108354;28;20480;-69
2024/04/06 05:32:09;;;;;;;6.47;6.37;;;;;;;;;;5102558;28;20487;-70
2024/04/06 05:34:36;;;;;;;6.30;6.20;;;;;;;;;;5107310;28;20468;-70
2024/04/06 05:37:02;;;;;;;6.50;6.40;;;;;;;;;;5102446;28;20527;-68
2024/04/06 05:39:30;;;;;;;7.10;7.00;;;;;;;;;;5108452;28;20469;-70
2024/04/06 05:41:57;;;;;;;6.63;6.53;;;;;;;;;;5103066;28;20468;-68
2024/04/06 05:44:24;;;;;;;7.20;7.10;;;;;;;;;;5098226;28;20583;-69
2024/04/06 05:46:52;;;;;;;7.30;7.20;;;;;;;;;;5110165;28;20468;-69
2024/04/06 05:49:19;;;;;;;7.00;6.90;;;;;;;;;;5099320;28;20464;-68
2024/04/06 05:51:46;;;;;;;7.40;7.30;;;;;;;;;;5102895;28;20460;-68
2024/04/06 05:54:13;;;;;;;7.87;7.77;;;;;;;;;;5112106;28;20516;-69
2024/04/06 05:56:41;;;;;;;8.20;8.10;;;;;;;;;;5103882;28;20473;-69
2024/04/06 05:59:09;;;;;;;8.63;8.53;;;;;;;;;;5107669;28;20499;-68
2024/04/06 06:01:36;;;;;;;8.53;8.43;;;;;;;;;;5109208;28;20546;-72
2024/04/06 06:04:03;;;;;;;8.80;8.70;;;;;;;;;;5113104;28;20532;-69
2024/04/06 06:06:30;;;;;;;9.67;9.47;;;;;;;;;;5109753;28;20501;-69
2024/04/06 06:08:57;;;;;;;9.37;9.17;;;;;;;;;;5106077;28;20467;-70
2024/04/06 06:11:23;;;;;;;9.73;9.53;;;;;;;;;;5108443;28;20460;-69
2024/04/06 06:13:51;;;;;;;9.80;9.60;;;;;;;;;;5113702;28;20501;-68
2024/04/06 06:16:18;;;;;;;9.60;9.40;;;;;;;;;;5116151;28;20453;-71
2024/04/06 06:18:46;;;;;;;9.60;9.40;;;;;;;;;;5111677;28;20983;-69
2024/04/06 06:21:12;;;;;;;9.90;9.70;;;;;;;;;;5106276;28;20467;-69
2024/04/06 06:23:39;;;;;;;9.70;9.50;;;;;;;;;;5105410;28;20525;-69
2024/04/06 06:26:05;;;;;;;9.70;9.50;;;;;;;;;;5105586;28;20573;-69
2024/04/06 06:28:32;;;;;;;9.87;9.67;;;;;;;;;;5103855;28;20525;-68
2024/04/06 06:31:00;;;;;;;9.70;9.50;;;;;;;;;;5114379;28;20988;-67
2024/04/06 06:33:30;;;;;;;10.13;9.93;;;;;;;;;;5113789;28;20545;-68
2024/04/06 06:35:56;;;;;;;9.90;9.70;;;;;;;;;;5108677;28;20492;-70
2024/04/06 06:38:23;;;;;;;10.13;9.93;;;;;;;;;;5108786;28;20887;-68
2024/04/06 06:40:50;;;;;;;9.80;9.60;;;;;;;;;;5104681;28;20546;-68
2024/04/06 06:43:17;;;;;;;10.73;10.53;;;;;;;;;;5113452;28;20536;-68
2024/04/06 06:45:44;;;;;;;10.83;10.60;;;;;;;;;;5124488;28;20457;-68
2024/04/06 06:48:11;;;;;;;10.40;10.20;;;;;;;;;;5115051;28;20453;-68
2024/04/06 06:50:39;;;;;;;11.30;11.00;;;;;;;;;;5115882;28;20831;-69
2024/04/06 06:53:06;;;;;;;10.83;10.53;;;;;;;;;;5119739;27;21032;-69
2024/04/06 06:55:32;;;;;;;11.50;11.20;;;;;;;;;;5113340;28;20737;-67
2024/04/06 06:57:59;;;;;;;11.77;11.47;;;;;;;;;;5121155;28;20464;-67
2024/04/06 07:00:25;;;;;;;12.17;11.87;;;;;;;;;;5111903;27;20462;-67
2024/04/06 07:02:52;;;;;;;11.60;11.30;;;;;;;;;;5113661;27;20481;-67
2024/04/06 07:05:19;;;;;;;11.83;11.53;;;;;;;;;;5118834;27;20458;-68
2024/04/06 07:07:53;;;;;;;11.57;11.27;;;;;;;;;;5118379;27;20518;-71
2024/04/06 07:10:20;;;;;;;11.77;11.47;;;;;;;;;;5115302;27;20533;-68
2024/04/06 07:12:47;;;;;;;11.60;11.30;;;;;;;;;;5112286;27;20493;-67
2024/04/06 07:15:13;;;;;;;11.60;11.30;;;;;;;;;;5120911;27;20473;-67
2024/04/06 07:17:40;;;;;;;12.13;11.83;;;;;;;;;;5119376;27;20489;-66
2024/04/06 07:20:08;;;;;;;11.70;11.40;;;;;;;;;;5117001;28;20462;-67
2024/04/06 07:22:35;;;;;;;12.30;12.00;;;;;;;;;;5114599;28;20466;-67
2024/04/06 07:25:03;;;;;;;11.60;11.30;;;;;;;;;;5114536;28;20495;-67
2024/04/06 07:27:30;;;;;;;12.03;11.73;;;;;;;;;;5116087;28;20465;-68
2024/04/06 07:29:57;;;;;;;12.33;12.03;;;;;;;;;;5114880;28;20460;-67
2024/04/06 07:32:24;;;;;;;12.10;11.80;;;;;;;;;;5126466;27;20482;-67
2024/04/06 07:34:50;;;;;;;12.30;12.00;;;;;;;;;;5118625;28;20459;-67
2024/04/06 07:37:17;;;;;;;12.10;11.80;;;;;;;;;;5112929;28;20520;-67
2024/04/06 07:39:43;;;;;;;11.90;11.60;;;;;;;;;;5113144;28;20699;-68
2024/04/06 07:42:12;;;;;;;12.27;11.97;;;;;;;;;;5108174;28;20534;-67
2024/04/06 07:44:38;;;;;;;12.43;12.10;;;;;;;;;;5116045;28;20500;-67
2024/04/06 07:47:05;;;;;;;12.40;12.07;;;;;;;;;;5114638;28;20558;-67
2024/04/06 07:49:32;;;;;;;12.40;12.10;;;;;;;;;;5106389;28;20483;-71
2024/04/06 07:51:59;;;;;;;12.93;12.53;;;;;;;;;;5110953;28;20462;-70
2024/04/06 07:54:25;;;;;;;12.40;12.10;;;;;;;;;;5111858;28;20458;-67
2024/04/06 07:56:52;;;;;;;12.23;11.93;;;;;;;;;;5106313;28;20470;-71
2024/04/06 07:59:20;;;;;;;12.73;12.33;;;;;;;;;;5111722;28;20551;-68
2024/04/06 08:01:47;;;;;;;12.50;12.20;;;;;;;;;;5102293;28;20549;-68
2024/04/06 08:04:14;;;;;;;12.50;12.20;;;;;;;;;;5097435;28;22394;-68
2024/04/06 08:06:41;;;;;;;12.70;12.30;;;;;;;;;;5095885;27;20462;-67
2024/04/06 08:09:08;;;;;;;12.53;12.20;;;;;;;;;;5103615;28;20463;-69
2024/04/06 08:11:35;;;;;;;12.53;12.23;;;;;;;;;;5106533;28;20505;-67
2024/04/06 08:14:02;;;;;;;13.30;12.90;;;;;;;;;;5105898;27;20487;-68
2024/04/06 08:16:30;;;;;;;13.30;12.90;;;;;;;;;;5108253;27;20892;-67
2024/04/06 08:18:56;;;;;;;13.00;12.60;;;;;;;;;;5110898;27;20475;-67
2024/04/06 08:21:24;;;;;;;13.17;12.77;;;;;;;;;;5103858;28;20466;-66
2024/04/06 08:23:50;;;;;;;13.10;12.70;;;;;;;;;;5111684;28;20492;-68
2024/04/06 08:26:17;;;;;;;13.40;13.00;;;;;;;;;;5098967;28;20468;-70
2024/04/06 08:28:43;;;;;;;13.40;13.00;;;;;;;;;;5107630;28;20870;-67
2024/04/06 08:31:10;;;;;;;13.93;13.53;;;;;;;;;;5109063;27;20558;-67
2024/04/06 08:33:37;;;;;;;13.80;13.40;;;;;;;;;;5102695;28;20927;-66
2024/04/06 08:36:05;;;;;;;12.90;12.50;;;;;;;;;;5098652;27;20497;-67
2024/04/06 08:38:31;;;;;;;13.90;13.50;;;;;;;;;;5099540;28;20469;-69
2024/04/06 08:41:01;;;;;;;12.70;12.40;;;;;;;;;;5103602;27;21002;-67
2024/04/06 08:43:30;;;;;;;13.40;13.00;;;;;;;;;;5107776;28;20489;-67
2024/04/06 08:45:57;;;;;;;13.57;13.17;;;;;;;;;;5104957;28;20999;-67
2024/04/06 08:48:24;;;;;;;13.03;12.63;;;;;;;;;;5105894;27;20491;-71
2024/04/06 08:50:53;;;;;;;13.60;13.20;;;;;;;;;;5101847;28;20469;-68
2024/04/06 08:53:19;;;;;;;13.40;13.00;;;;;;;;;;5099461;28;20521;-73
2024/04/06 08:55:46;;;;;;;13.90;13.50;;;;;;;;;;5108136;27;20469;-68
2024/04/06 08:58:13;;;;;;;13.60;13.20;;;;;;;;;;5102167;28;20463;-67
2024/04/06 09:00:43;;;;;;;13.83;13.43;;;;;;;;;;5104968;28;20464;-70
2024/04/06 09:03:10;;;;;;;14.03;13.63;;;;;;;;;;5098300;28;20470;-70
2024/04/06 09:05:42;;;;;;;13.10;12.70;;;;;;;;;;5093540;28;20459;-68
2024/04/06 09:08:14;;;;;;;13.90;13.50;;;;;;;;;;5094192;27;20454;-68
2024/04/06 09:10:41;;;;;;;13.30;12.90;;;;;;;;;;5097196;28;20469;-71
2024/04/06 09:13:08;;;;;;;14.10;13.70;;;;;;;;;;5100428;28;20638;-68
2024/04/06 09:15:35;;;;;;;14.50;14.00;;;;;;;;;;5102721;28;20554;-69
2024/04/06 09:18:01;;;;;;;14.70;14.20;;;;;;;;;;5102329;28;20959;-69
2024/04/06 09:20:28;;;;;;;14.57;14.07;;;;;;;;;;5097783;28;20467;-71
2024/04/06 09:22:56;;;;;;;14.83;14.33;;;;;;;;;;5093269;28;20467;-69
2024/04/06 09:25:25;;;;;;;14.83;14.33;;;;;;;;;;5106911;28;20486;-72
2024/04/06 09:27:51;;;;;;;14.93;14.43;;;;;;;;;;5099167;28;20465;-72
2024/04/06 09:30:20;;;;;;;14.57;14.13;;;;;;;;;;5093520;28;20463;-68
2024/04/06 09:32:46;;;;;;;15.00;14.50;;;;;;;;;;5099745;28;20472;-70
2024/04/06 09:35:13;;;;;;;14.83;14.33;;;;;;;;;;5097217;28;20819;-70
2024/04/06 09:37:41;;;;;;;15.40;14.90;;;;;;;;;;5107181;28;20468;-71
2024/04/06 09:40:09;;;;;;;15.23;14.73;;;;;;;;;;5106967;28;20506;-70
2024/04/06 09:42:37;;;;;;;15.43;14.93;;;;;;;;;;5107008;28;20970;-70
2024/04/06 09:45:05;;;;;;;15.23;14.73;;;;;;;;;;5103798;28;20510;-70
2024/04/06 09:47:32;;;;;;;15.17;14.67;;;;;;;;;;5097330;28;20463;-70
2024/04/06 09:49:59;;;;;;;14.50;14.00;;;;;;;;;;5106875;28;20988;-70
2024/04/06 09:52:26;;;;;;;15.20;14.70;;;;;;;;;;5094089;28;20467;-69
2024/04/06 09:54:53;;;;;;;14.70;14.20;;;;;;;;;;5105595;28;20468;-74
2024/04/06 09:57:19;;;;;;;15.00;14.50;;;;;;;;;;5106349;28;20855;-69
2024/04/06 09:59:48;;;;;;;14.90;14.40;;;;;;;;;;5104834;28;20468;-72
2024/04/06 10:02:22;;;;;;;14.97;14.47;;;;;;;;;;5111388;28;20947;-70
2024/04/06 10:04:55;;;;;;;14.43;13.93;;;;;;;;;;5110594;28;20540;-70
2024/04/06 10:07:27;;;;;;;15.27;14.77;;;;;;;;;;5102468;28;20459;-70
2024/04/06 10:10:00;;;;;;;15.63;15.13;;;;;;;;;;5094648;28;20460;-74
2024/04/06 10:12:36;;;;;;;14.60;14.10;;;;;;;;;;5096458;28;20908;-71
2024/04/06 10:15:08;;;;;;;14.63;14.13;;;;;;;;;;5103352;28;20829;-70
2024/04/06 10:17:41;;;;;;;14.50;14.00;;;;;;;;;;5107738;28;20500;-71
2024/04/06 10:20:09;;;;;;;14.63;14.13;;;;;;;;;;5090673;28;20833;-73
2024/04/06 10:22:43;;;;;;;14.53;14.03;;;;;;;;;;5098966;28;20469;-71
2024/04/06 10:25:11;;;;;;;15.07;14.57;;;;;;;;;;5099979;28;20489;-73
2024/04/06 10:27:38;;;;;;;15.53;15.03;;;;;;;;;;5111318;27;20847;-73
2024/04/06 10:30:08;;;;;;;15.10;14.60;;;;;;;;;;5108982;27;20469;-71
2024/04/06 10:32:34;;;;;;;14.83;14.33;;;;;;;;;;5108991;27;20470;-71
2024/04/06 10:35:03;;;;;;;15.50;15.00;;;;;;;;;;5106745;27;20526;-72
2024/04/06 10:37:29;;;;;;;15.00;14.50;;;;;;;;;;5107528;27;20472;-72
2024/04/06 10:39:57;;;;;;;15.00;14.50;;;;;;;;;;5104563;27;20476;-74
2024/04/06 10:42:25;;;;;;;15.60;15.10;;;;;;;;;;5106525;27;21023;-75
2024/04/06 10:44:53;;;;;;;15.90;15.30;;;;;;;;;;5110932;27;20483;-71
2024/04/06 10:47:20;;;;;;;15.70;15.20;;;;;;;;;;5107330;27;20840;-71
2024/04/06 10:49:47;;;;;;;15.03;14.53;;;;;;;;;;5111930;27;20929;-71
2024/04/06 10:52:13;;;;;;;15.37;14.87;;;;;;;;;;5106117;27;21240;-73
2024/04/06 10:54:41;;;;;;;15.80;15.20;;;;;;;;;;5106910;27;20514;-71
2024/04/06 10:57:07;;;;;;;15.60;15.10;;;;;;;;;;5107668;27;20491;-71
2024/04/06 10:59:43;;;;;;;15.93;15.33;;;;;;;;;;5115327;27;20561;-73
2024/04/06 11:02:09;;;;;;;16.10;15.50;;;;;;;;;;5109446;27;21588;-72
2024/04/06 11:04:47;;;;;;;16.20;15.60;;;;;;;;;;5102868;27;20495;-73
2024/04/06 11:07:19;;;;;;;15.50;15.00;;;;;;;;;;5106045;27;20467;-74
2024/04/06 11:10:12;;;;;;;14.87;14.37;;;;;;;;;;5107195;27;20616;-71
2024/04/06 11:12:51;;;;;;;;;;;;;;;;;;;;;
2024/04/06 11:18:20;;;;;;;15.60;15.00;;;;;;;;;;5087438;28;21040;-73
2024/04/06 11:20:59;;;;;;;15.80;15.20;;;;;;;;;;5080614;28;20584;-74
2024/04/06 11:23:36;;;;;;;15.30;14.80;;;;;;;;;;5087610;28;20484;-76
2024/04/06 11:26:06;;;;;;;15.17;14.67;;;;;;;;;;5091761;28;20825;-71
2024/04/06 11:28:38;;;;;;;15.07;14.57;;;;;;;;;;5087229;28;20464;-74
2024/04/06 11:31:06;;;;;;;15.10;14.60;;;;;;;;;;5089769;28;20470;-74
2024/04/06 11:33:37;;;;;;;15.27;14.77;;;;;;;;;;5090016;28;20883;-72
2024/04/06 11:36:05;;;;;;;15.17;14.67;;;;;;;;;;5085084;28;20673;-76
2024/04/06 11:38:32;;;;;;;15.10;14.60;;;;;;;;;;5099406;28;20912;-73
2024/04/06 11:44:23;;;;;;;15.30;14.80;;;;;;;;;;5021043;28;20513;-74
2024/04/06 11:50:35;;;;;;;15.30;14.80;;;;;;;;;;5089413;28;20521;-72
2024/04/06 11:53:14;;;;;;;14.53;14.03;;;;;;;;;;5089566;28;20457;-73
2024/04/06 11:55:59;;;;;;;15.00;14.50;;;;;;;;;;5097991;28;20564;-73
2024/04/06 12:01:49;;;;;;;14.90;14.40;;;;;;;;;;5006554;28;20464;-72
2024/04/06 12:02:12;;;;;;;15.10;14.60;;;;;;;;;;5101098;28;21266;-73
2024/04/06 12:04:15;;;;;;;15.33;14.73;;;;;;;;;;5096157;28;20528;-72
2024/04/06 12:06:42;;;;;;;15.20;14.70;;;;;;;;;;5109345;28;20461;-72
2024/04/06 12:09:10;;;;;;;15.00;14.50;;;;;;;;;;5112676;28;20534;-73
2024/04/06 12:11:37;;;;;;;15.57;14.97;;;;;;;;;;5103578;28;21087;-74
2024/04/06 12:14:04;;;;;;;15.10;14.60;;;;;;;;;;5116517;27;20488;-74
2024/04/06 12:16:31;;;;;;;15.43;14.83;;;;;;;;;;5134103;27;20464;-72
2024/04/06 12:18:57;;;;;;;15.13;14.63;;;;;;;;;;5129142;27;20531;-74
2024/04/06 12:21:25;;;;;;;15.50;14.90;;;;;;;;;;5114704;27;21050;-72
2024/04/06 12:23:51;;;;;;;15.87;15.37;;;;;;;;;;5118847;27;20463;-72
2024/04/06 12:26:20;;;;;;;15.40;14.90;;;;;;;;;;5117499;27;20568;-71
2024/04/06 12:28:48;;;;;;;15.10;14.60;;;;;;;;;;5126649;27;20640;-73
2024/04/06 12:31:15;;;;;;;15.00;14.50;;;;;;;;;;5124368;27;20472;-73
2024/04/06 12:33:41;;;;;;;15.97;15.37;;;;;;;;;;5125880;27;20560;-72
2024/04/06 12:36:25;;;;;;;15.40;14.90;;;;;;;;;;5114109;27;20556;-75
2024/04/06 12:38:54;;;;;;;15.80;15.23;;;;;;;;;;5030935;28;20515;-73
2024/04/06 12:41:22;;;;;;;15.03;14.53;;;;;;;;;;5093561;27;20461;-74
2024/04/06 12:43:49;;;;;;;14.00;13.60;;;;;;;;;;5105178;27;20468;-73
2024/04/06 12:46:16;;;;;;;15.23;14.73;;;;;;;;;;5094768;28;20474;-73
2024/04/06 12:48:43;;;;;;;15.20;14.70;;;;;;;;;;5099420;27;20821;-75
2024/04/06 12:51:09;;;;;;;15.40;14.90;;;;;;;;;;5099278;27;20891;-74
2024/04/06 12:53:36;;;;;;;16.33;15.73;;;;;;;;;;5113233;27;20495;-74
2024/04/06 12:56:03;;;;;;;15.30;14.80;;;;;;;;;;5112909;27;20457;-75
2024/04/06 12:58:32;;;;;;;14.93;14.43;;;;;;;;;;5113787;27;20470;-75
2024/04/06 13:00:58;;;;;;;15.80;15.30;;;;;;;;;;5103133;27;20460;-73
2024/04/06 13:03:26;;;;;;;16.00;15.50;;;;;;;;;;5120079;27;20464;-75
2024/04/06 13:05:52;;;;;;;15.70;15.20;;;;;;;;;;5133257;27;20549;-74
2024/04/06 13:08:20;;;;;;;15.83;15.33;;;;;;;;;;5129581;27;20492;-74
2024/04/06 13:10:46;;;;;;;16.10;15.60;;;;;;;;;;5129310;27;20550;-74
2024/04/06 13:13:13;;;;;;;15.30;14.80;;;;;;;;;;5129731;27;20511;-71
2024/04/06 13:15:42;;;;;;;15.43;14.93;;;;;;;;;;5133091;27;20462;-73
2024/04/06 13:18:09;;;;;;;15.57;15.07;;;;;;;;;;5120896;27;20533;-71
2024/04/06 13:20:35;;;;;;;16.00;15.50;;;;;;;;;;5117569;27;20600;-71
2024/04/06 13:23:04;;;;;;;15.53;15.03;;;;;;;;;;5131660;27;20461;-73
2024/04/06 13:25:30;;;;;;;15.67;15.17;;;;;;;;;;5130233;27;20799;-74
2024/04/06 13:27:57;;;;;;;16.10;15.60;;;;;;;;;;5130582;27;20837;-73
2024/04/06 13:30:25;;;;;;;15.90;15.40;;;;;;;;;;5122970;27;20583;-74
2024/04/06 13:32:55;;;;;;;16.80;16.20;;;;;;;;;;5126048;27;20469;-74
2024/04/06 13:38:07;;;;;;;16.50;15.90;;;;;;;;;;5070025;28;20453;-74
2024/04/06 13:40:37;;;;;;;15.73;15.23;;;;;;;;;;5133806;28;20872;-73
2024/04/06 13:43:04;;;;;;;16.10;15.60;;;;;;;;;;5129143;28;20540;-74
2024/04/06 13:45:31;;;;;;;15.70;15.20;;;;;;;;;;5130309;28;20582;-72
2024/04/06 13:47:59;;;;;;;15.37;14.87;;;;;;;;;;5125427;28;20459;-73
2024/04/06 13:50:25;;;;;;;15.97;15.47;;;;;;;;;;5131677;28;20465;-73
2024/04/06 13:52:53;;;;;;;16.80;16.20;;;;;;;;;;5128320;28;20482;-75
2024/04/06 13:55:19;;;;;;;16.50;15.90;;;;;;;;;;5123557;28;20488;-74
2024/04/06 13:57:51;;;;;;;16.47;15.87;;;;;;;;;;5130001;28;20563;-73
2024/04/06 14:00:18;;;;;;;16.63;16.03;;;;;;;;;;5127413;28;20476;-73
2024/04/06 14:02:45;;;;;;;16.50;15.90;;;;;;;;;;5127741;27;20483;-74
2024/04/06 14:05:13;;;;;;;16.70;16.10;;;;;;;;;;5136572;27;20523;-75
2024/04/06 14:07:40;;;;;;;16.20;15.60;;;;;;;;;;5131691;27;20519;-74
2024/04/06 14:10:09;;;;;;;16.53;15.93;;;;;;;;;;5128828;27;20455;-75
2024/04/06 14:12:37;;;;;;;16.70;16.10;;;;;;;;;;5128258;27;20525;-75
2024/04/06 14:15:07;;;;;;;16.93;16.33;;;;;;;;;;5122004;27;20519;-74
2024/04/06 14:17:34;;;;;;;15.93;15.43;;;;;;;;;;5131903;27;20547;-74
2024/04/06 14:20:01;;;;;;;16.90;16.30;;;;;;;;;;5132595;27;20456;-75
2024/04/06 14:22:29;;;;;;;16.60;16.00;;;;;;;;;;5135648;27;20456;-74
2024/04/06 14:24:56;;;;;;;16.40;15.80;;;;;;;;;;5133504;27;20485;-74
2024/04/06 14:27:27;;;;;;;16.67;16.07;;;;;;;;;;5134347;27;20990;-74
2024/04/06 14:29:59;;;;;;;15.93;15.43;;;;;;;;;;5130422;27;20453;-73
2024/04/06 14:32:26;;;;;;;16.67;16.07;;;;;;;;;;5119678;27;20849;-73
2024/04/06 14:34:54;;;;;;;16.60;16.00;;;;;;;;;;5131384;27;20464;-74
2024/04/06 14:37:24;;;;;;;15.90;15.40;;;;;;;;;;5133940;27;20521;-75
2024/04/06 14:39:52;;;;;;;16.53;15.93;;;;;;;;;;5129889;27;20453;-75
2024/04/06 14:42:19;;;;;;;16.53;15.93;;;;;;;;;;5130345;27;20531;-73
2024/04/06 14:44:45;;;;;;;16.67;16.07;;;;;;;;;;5121709;27;20498;-76
2024/04/06 14:47:13;;;;;;;16.70;16.10;;;;;;;;;;5117455;27;20466;-74